createdAt,value
2019-05-30T00:00:18.110Z,2.10
2019-05-30T00:01:23.514Z,1.83
2019-05-30T00:02:29.237Z,1.63
2019-05-30T00:03:34.466Z,1.83
2019-05-30T00:04:40.269Z,1.90
2019-05-30T00:05:45.524Z,1.53
2019-05-30T00:06:51.350Z,1.60
2019-05-30T00:07:56.537Z,1.70
2019-05-30T00:09:03.253Z,2.00
2019-05-30T00:10:08.986Z,1.60
2019-05-30T00:11:14.932Z,1.73
2019-05-30T00:12:20.070Z,1.70
2019-05-30T00:13:26.087Z,1.70
2019-05-30T00:14:32.958Z,1.80
2019-05-30T00:15:38.831Z,1.70
2019-05-30T00:16:44.057Z,2.03
2019-05-30T00:17:49.847Z,2.27
2019-05-30T00:18:55.105Z,1.93
2019-05-30T00:20:01.055Z,2.07
2019-05-30T00:21:07.678Z,1.87
2019-05-30T00:22:13.535Z,2.30
2019-05-30T00:23:18.803Z,1.80
2019-05-30T00:24:24.626Z,1.80
2019-05-30T00:25:32.163Z,1.70
2019-05-30T00:26:38.429Z,1.77
2019-05-30T00:27:43.564Z,1.97
2019-05-30T00:28:52.186Z,1.70
2019-05-30T00:29:57.406Z,2.00
2019-05-30T00:31:03.149Z,1.90
2019-05-30T00:32:08.313Z,1.90
2019-05-30T00:33:14.126Z,2.37
2019-05-30T00:34:19.343Z,1.73
2019-05-30T00:35:27.741Z,2.23
2019-05-30T00:36:47.869Z,1.70
2019-05-30T00:37:53.727Z,1.97
2019-05-30T00:38:59.769Z,2.20
2019-05-30T00:40:06.310Z,2.03
2019-05-30T00:41:12.583Z,1.80
2019-05-30T00:42:18.426Z,1.97
2019-05-30T00:43:26.431Z,1.90
2019-05-30T00:44:32.186Z,1.83
2019-05-30T00:45:37.335Z,2.50
2019-05-30T00:46:43.161Z,2.17
2019-05-30T00:47:48.370Z,1.80
2019-05-30T00:48:54.178Z,1.80
2019-05-30T00:50:00.207Z,2.10
2019-05-30T00:51:06.728Z,1.97
2019-05-30T00:52:12.163Z,2.03
2019-05-30T00:53:17.953Z,2.10
2019-05-30T00:54:23.305Z,2.10
2019-05-30T00:55:29.090Z,2.30
2019-05-30T00:56:34.308Z,2.27
2019-05-30T00:57:40.066Z,2.20
2019-05-30T00:58:45.296Z,2.43
2019-05-30T00:59:51.098Z,2.37
2019-05-30T01:00:56.791Z,2.00
2019-05-30T01:02:02.831Z,2.17
2019-05-30T01:03:09.072Z,2.20
2019-05-30T01:04:15.122Z,2.27
2019-05-30T01:05:20.396Z,2.30
2019-05-30T01:06:28.481Z,2.40
2019-05-30T01:07:33.746Z,2.50
2019-05-30T01:08:39.514Z,2.40
2019-05-30T01:09:45.771Z,2.33
2019-05-30T01:10:52.709Z,2.30
2019-05-30T01:11:59.025Z,2.27
2019-05-30T01:13:05.180Z,2.23
2019-05-30T01:14:10.601Z,2.60
2019-05-30T01:15:17.620Z,2.30
2019-05-30T01:16:22.936Z,2.30
2019-05-30T01:17:28.666Z,2.57
2019-05-30T01:18:33.955Z,2.40
2019-05-30T01:19:39.710Z,2.40
2019-05-30T01:20:45.360Z,2.30
2019-05-30T01:21:52.262Z,2.50
2019-05-30T01:22:57.442Z,2.40
2019-05-30T01:24:03.605Z,2.50
2019-05-30T01:25:08.953Z,2.20
2019-05-30T01:26:15.009Z,2.23
2019-05-30T01:27:20.261Z,2.13
2019-05-30T01:28:27.055Z,2.60
2019-05-30T01:29:32.309Z,2.40
2019-05-30T01:30:38.052Z,2.40
2019-05-30T01:31:43.277Z,2.23
2019-05-30T01:32:49.080Z,2.53
2019-05-30T01:33:54.353Z,2.30
2019-05-30T01:35:01.964Z,2.70
2019-05-30T01:36:07.965Z,2.33
2019-05-30T01:37:13.855Z,2.50
2019-05-30T01:38:19.126Z,2.33
2019-05-30T01:39:24.970Z,2.43
2019-05-30T01:40:30.214Z,2.33
2019-05-30T01:41:38.722Z,2.37
2019-05-30T01:42:44.085Z,2.40
2019-05-30T01:43:49.867Z,2.73
2019-05-30T01:44:55.023Z,2.80
2019-05-30T01:46:02.033Z,3.63
2019-05-30T01:47:08.383Z,3.07
2019-05-30T01:48:14.391Z,3.60
2019-05-30T01:49:19.671Z,2.57
2019-05-30T01:50:25.558Z,2.57
2019-05-30T01:51:30.746Z,2.43
2019-05-30T01:52:39.114Z,2.40
2019-05-30T01:53:44.226Z,2.47
2019-05-30T01:54:50.052Z,2.40
2019-05-30T01:55:55.293Z,2.43
2019-05-30T01:57:01.054Z,2.90
2019-05-30T01:58:07.224Z,2.60
2019-05-30T01:59:13.067Z,2.73
2019-05-30T02:00:21.312Z,2.40
2019-05-30T02:01:25.989Z,2.20
2019-05-30T02:02:31.206Z,2.13
2019-05-30T02:03:40.351Z,2.50
2019-05-30T02:04:45.632Z,3.17
2019-05-30T02:05:51.502Z,2.33
2019-05-30T02:06:56.753Z,2.53
2019-05-30T02:08:03.098Z,2.60
2019-05-30T02:09:10.415Z,2.70
2019-05-30T02:10:16.763Z,2.50
2019-05-30T02:11:22.090Z,2.40
2019-05-30T02:12:27.922Z,2.40
2019-05-30T02:13:33.077Z,3.17
2019-05-30T02:14:41.906Z,2.60
2019-05-30T02:15:47.193Z,2.43
2019-05-30T02:16:52.961Z,2.70
2019-05-30T02:17:59.433Z,2.70
2019-05-30T02:19:05.825Z,2.50
2019-05-30T02:20:11.250Z,2.60
2019-05-30T02:21:17.112Z,2.50
2019-05-30T02:22:22.394Z,2.93
2019-05-30T02:23:28.364Z,2.57
2019-05-30T02:24:33.517Z,2.67
2019-05-30T02:25:39.445Z,2.93
2019-05-30T02:26:44.611Z,2.40
2019-05-30T02:27:50.370Z,2.53
2019-05-30T02:28:55.683Z,2.60
2019-05-30T02:30:03.961Z,2.80
2019-05-30T02:31:09.583Z,2.40
2019-05-30T02:32:15.891Z,2.70
2019-05-30T02:33:21.181Z,2.80
2019-05-30T02:34:26.911Z,3.03
2019-05-30T02:35:35.206Z,2.23
2019-05-30T02:36:41.101Z,2.53
2019-05-30T02:37:46.319Z,2.40
2019-05-30T02:38:52.140Z,2.90
2019-05-30T02:40:00.923Z,2.50
2019-05-30T02:41:05.722Z,2.43
2019-05-30T02:42:11.820Z,2.50
2019-05-30T02:43:17.718Z,2.40
2019-05-30T02:44:22.937Z,2.30
2019-05-30T02:45:28.898Z,2.70
2019-05-30T02:46:34.095Z,2.70
2019-05-30T02:47:39.906Z,2.57
2019-05-30T02:48:57.978Z,3.30
2019-05-30T02:49:52.575Z,3.43
2019-05-30T02:50:57.722Z,2.73
2019-05-30T02:52:04.782Z,2.73
2019-05-30T02:53:12.634Z,2.53
2019-05-30T02:54:17.679Z,2.97
2019-05-30T02:55:22.805Z,2.80
2019-05-30T02:56:28.598Z,2.40
2019-05-30T02:57:35.395Z,2.53
2019-05-30T02:58:41.206Z,2.20
2019-05-30T02:59:46.375Z,2.30
2019-05-30T03:00:52.227Z,2.30
2019-05-30T03:02:02.012Z,2.60
2019-05-30T03:03:06.543Z,2.30
2019-05-30T03:04:12.911Z,2.50
2019-05-30T03:05:18.833Z,2.50
2019-05-30T03:06:24.006Z,2.43
2019-05-30T03:07:29.910Z,2.40
2019-05-30T03:08:35.125Z,2.50
2019-05-30T03:09:44.168Z,2.20
2019-05-30T03:10:49.448Z,2.83
2019-05-30T03:11:55.170Z,2.70
2019-05-30T03:13:01.783Z,2.50
2019-05-30T03:14:12.020Z,2.40
2019-05-30T03:15:15.856Z,2.90
2019-05-30T03:16:21.821Z,2.50
2019-05-30T03:17:28.698Z,2.83
2019-05-30T03:18:34.531Z,2.33
2019-05-30T03:19:39.710Z,2.70
2019-05-30T03:20:47.351Z,2.67
2019-05-30T03:21:52.589Z,2.37
2019-05-30T03:22:58.702Z,2.10
2019-05-30T03:24:05.122Z,2.70
2019-05-30T03:25:15.590Z,2.80
2019-05-30T03:26:18.201Z,2.40
2019-05-30T03:27:23.944Z,2.60
2019-05-30T03:28:29.341Z,2.97
2019-05-30T03:29:35.305Z,2.30
2019-05-30T03:30:40.497Z,2.50
2019-05-30T03:31:47.534Z,2.73
2019-05-30T03:33:06.682Z,2.63
2019-05-30T03:34:00.136Z,3.03
2019-05-30T03:35:15.052Z,2.80
2019-05-30T03:36:23.937Z,2.90
2019-05-30T03:37:28.477Z,3.00
2019-05-30T03:38:29.523Z,2.50
2019-05-30T03:39:34.894Z,2.60
2019-05-30T03:40:40.671Z,2.73
2019-05-30T03:41:45.968Z,2.63
2019-05-30T03:42:54.575Z,3.03
2019-05-30T03:43:59.746Z,2.67
2019-05-30T03:45:08.473Z,2.53
2019-05-30T03:46:18.014Z,3.20
2019-05-30T03:47:25.860Z,3.30
2019-05-30T03:48:31.796Z,2.50
2019-05-30T03:49:40.501Z,2.63
2019-05-30T03:50:49.374Z,2.53
2019-05-30T03:51:58.178Z,2.80
2019-05-30T03:53:04.549Z,2.60
2019-05-30T03:54:13.640Z,2.63
2019-05-30T03:55:20.278Z,3.07
2019-05-30T03:56:34.004Z,2.93
2019-05-30T03:57:43.775Z,3.10
2019-05-30T03:59:26.056Z,3.20
2019-05-30T04:00:51.148Z,3.20
2019-05-30T04:02:13.447Z,2.90
2019-05-30T04:03:43.063Z,2.80
2019-05-30T04:04:54.303Z,2.73
2019-05-30T04:06:02.526Z,3.00
2019-05-30T04:07:15.780Z,2.87
2019-05-30T04:08:22.946Z,2.67
2019-05-30T04:09:30.989Z,3.00
2019-05-30T04:10:40.353Z,2.83
2019-05-30T04:11:54.591Z,3.03
2019-05-30T04:13:23.439Z,2.73
2019-05-30T04:14:32.157Z,3.07
2019-05-30T04:15:38.693Z,3.23
2019-05-30T04:16:44.466Z,2.83
2019-05-30T04:17:49.628Z,2.93
2019-05-30T04:18:55.618Z,3.47
2019-05-30T04:20:00.909Z,2.60
2019-05-30T04:21:08.541Z,2.97
2019-05-30T04:22:13.651Z,3.10
2019-05-30T04:23:20.791Z,3.00
2019-05-30T04:24:26.062Z,3.13
2019-05-30T04:25:31.811Z,3.20
2019-05-30T04:26:37.056Z,2.97
2019-05-30T04:27:42.876Z,3.50
2019-05-30T04:28:48.073Z,3.10
2019-05-30T04:29:53.994Z,3.00
2019-05-30T04:30:59.222Z,3.20
2019-05-30T04:32:05.054Z,3.50
2019-05-30T04:33:20.799Z,3.30
2019-05-30T04:34:19.594Z,3.00
2019-05-30T04:35:24.883Z,3.73
2019-05-30T04:36:30.816Z,3.20
2019-05-30T04:37:36.079Z,3.60
2019-05-30T04:38:42.074Z,3.60
2019-05-30T04:39:47.323Z,3.67
2019-05-30T04:40:53.165Z,3.60
2019-05-30T04:41:58.445Z,4.20
2019-05-30T04:43:04.340Z,4.23
2019-05-30T04:44:11.466Z,3.77
2019-05-30T04:45:17.931Z,4.10
2019-05-30T04:46:23.385Z,3.87
2019-05-30T04:47:29.223Z,3.40
2019-05-30T04:48:34.495Z,3.30
2019-05-30T04:49:40.337Z,3.60
2019-05-30T04:50:45.501Z,3.43
2019-05-30T04:51:51.419Z,3.20
2019-05-30T04:52:56.837Z,3.20
2019-05-30T04:54:02.615Z,4.03
2019-05-30T04:55:10.538Z,3.17
2019-05-30T04:56:17.158Z,2.90
2019-05-30T04:57:26.923Z,3.50
2019-05-30T04:58:30.802Z,3.80
2019-05-30T04:59:36.084Z,3.80
2019-05-30T05:00:41.887Z,3.27
2019-05-30T05:01:47.233Z,3.93
2019-05-30T05:02:52.995Z,3.77
2019-05-30T05:03:58.210Z,3.63
2019-05-30T05:05:04.235Z,3.70
2019-05-30T05:06:09.532Z,3.70
2019-05-30T05:07:15.655Z,3.80
2019-05-30T05:08:22.113Z,3.20
2019-05-30T05:09:29.269Z,3.67
2019-05-30T05:10:34.553Z,3.37
2019-05-30T05:11:40.468Z,3.87
2019-05-30T05:12:45.744Z,3.73
2019-05-30T05:13:51.555Z,3.47
2019-05-30T05:14:56.836Z,3.90
2019-05-30T05:16:02.565Z,3.80
2019-05-30T05:17:07.690Z,3.23
2019-05-30T05:18:14.774Z,3.90
2019-05-30T05:19:22.215Z,3.73
2019-05-30T05:20:28.527Z,4.13
2019-05-30T05:21:33.658Z,3.70
2019-05-30T05:22:39.754Z,3.37
2019-05-30T05:23:45.219Z,3.87
2019-05-30T05:24:51.041Z,3.20
2019-05-30T05:26:00.974Z,3.40
2019-05-30T05:27:03.731Z,3.80
2019-05-30T05:28:08.915Z,3.53
2019-05-30T05:29:15.783Z,3.70
2019-05-30T05:30:22.512Z,3.70
2019-05-30T05:31:28.288Z,3.83
2019-05-30T05:32:33.475Z,3.80
2019-05-30T05:33:39.203Z,3.47
2019-05-30T05:34:46.190Z,4.27
2019-05-30T05:35:51.970Z,3.70
2019-05-30T05:36:57.136Z,3.63
2019-05-30T05:38:03.070Z,3.70
2019-05-30T05:39:08.388Z,4.23
2019-05-30T05:40:16.054Z,3.70
2019-05-30T05:41:22.307Z,3.83
2019-05-30T05:42:30.272Z,3.63
2019-05-30T05:43:35.550Z,4.50
2019-05-30T05:44:41.389Z,3.80
2019-05-30T05:45:46.592Z,3.57
2019-05-30T05:46:52.384Z,3.53
2019-05-30T05:47:57.571Z,3.53
2019-05-30T05:49:03.278Z,3.60
2019-05-30T05:50:08.626Z,3.70
2019-05-30T05:51:14.533Z,4.23
2019-05-30T05:52:20.717Z,3.60
2019-05-30T05:53:26.622Z,4.10
2019-05-30T05:54:31.861Z,3.70
2019-05-30T05:55:37.695Z,4.13
2019-05-30T05:56:42.879Z,3.60
2019-05-30T05:57:49.576Z,3.60
2019-05-30T05:58:54.944Z,3.77
2019-05-30T06:00:00.723Z,3.93
2019-05-30T06:01:06.637Z,3.73
2019-05-30T06:02:13.563Z,3.80
2019-05-30T06:03:20.019Z,3.40
2019-05-30T06:04:27.264Z,3.47
2019-05-30T06:05:32.531Z,3.90
2019-05-30T06:06:38.361Z,3.80
2019-05-30T06:07:43.649Z,3.80
2019-05-30T06:08:49.361Z,3.80
2019-05-30T06:09:54.520Z,3.60
2019-05-30T06:11:00.380Z,3.77
2019-05-30T06:12:05.570Z,4.00
2019-05-30T06:13:11.254Z,4.10
2019-05-30T06:14:17.702Z,4.27
2019-05-30T06:15:23.554Z,3.70
2019-05-30T06:16:28.786Z,4.17
2019-05-30T06:17:34.556Z,3.97
2019-05-30T06:18:39.775Z,3.90
2019-05-30T06:19:47.026Z,4.00
2019-05-30T06:20:52.313Z,3.90
2019-05-30T06:21:58.059Z,4.13
2019-05-30T06:23:06.335Z,4.13
2019-05-30T06:24:12.170Z,3.63
2019-05-30T06:25:19.054Z,3.90
2019-05-30T06:26:25.908Z,4.17
2019-05-30T06:27:32.157Z,4.07
2019-05-30T06:28:37.938Z,3.87
2019-05-30T06:29:46.695Z,4.03
2019-05-30T06:31:02.453Z,3.73
2019-05-30T06:32:08.094Z,4.10
2019-05-30T06:33:14.130Z,3.93
2019-05-30T06:34:29.338Z,3.77
2019-05-30T06:35:27.466Z,3.90
2019-05-30T06:36:33.885Z,3.57
2019-05-30T06:37:39.767Z,3.77
2019-05-30T06:38:45.033Z,3.30
2019-05-30T06:39:50.860Z,3.63
2019-05-30T06:40:56.001Z,4.10
2019-05-30T06:42:01.739Z,3.80
2019-05-30T06:43:08.646Z,4.17
2019-05-30T06:44:14.557Z,3.60
2019-05-30T06:45:23.641Z,3.93
2019-05-30T06:46:28.384Z,3.03
2019-05-30T06:47:33.711Z,3.43
2019-05-30T06:48:39.740Z,3.20
2019-05-30T06:49:45.063Z,3.50
2019-05-30T06:50:51.279Z,3.80
2019-05-30T06:51:56.539Z,3.60
2019-05-30T06:53:02.575Z,3.57
2019-05-30T06:54:07.757Z,3.50
2019-05-30T06:55:14.290Z,3.23
2019-05-30T06:56:19.497Z,3.73
2019-05-30T06:57:25.390Z,3.27
2019-05-30T06:58:45.736Z,3.57
2019-05-30T06:59:38.035Z,3.50
2019-05-30T07:00:43.183Z,3.23
2019-05-30T07:01:52.178Z,3.23
2019-05-30T07:02:57.523Z,3.23
2019-05-30T07:04:03.701Z,3.20
2019-05-30T07:05:09.883Z,4.60
2019-05-30T07:06:16.402Z,3.17
2019-05-30T07:07:23.099Z,2.87
2019-05-30T07:08:29.106Z,2.80
2019-05-30T07:09:34.528Z,3.00
2019-05-30T07:10:40.363Z,2.87
2019-05-30T07:11:45.474Z,3.03
2019-05-30T07:12:51.343Z,6.30
2019-05-30T07:13:56.504Z,2.60
2019-05-30T07:15:02.254Z,3.90
2019-05-30T07:16:07.401Z,4.03
2019-05-30T07:17:13.246Z,3.80
2019-05-30T07:18:18.431Z,3.10
2019-05-30T07:19:25.283Z,3.33
2019-05-30T07:20:31.659Z,5.37
2019-05-30T07:21:37.610Z,3.53
2019-05-30T07:22:42.749Z,3.33
2019-05-30T07:23:48.466Z,3.23
2019-05-30T07:24:53.602Z,3.10
2019-05-30T07:27:32.042Z,3.43
2019-05-30T07:28:37.940Z,3.60
2019-05-30T07:29:43.211Z,3.13
2019-05-30T07:30:48.943Z,3.13
2019-05-30T07:31:55.769Z,3.20
2019-05-30T07:33:01.585Z,3.30
2019-05-30T07:34:06.883Z,3.50
2019-05-30T07:35:12.933Z,3.17
2019-05-30T07:36:18.189Z,3.20
2019-05-30T07:37:24.533Z,3.20
2019-05-30T07:38:30.522Z,3.30
2019-05-30T07:39:37.654Z,3.20
2019-05-30T07:40:42.960Z,3.30
2019-05-30T07:42:05.186Z,2.90
2019-05-30T07:42:57.320Z,3.37
2019-05-30T07:44:03.116Z,3.30
2019-05-30T07:45:09.891Z,3.20
2019-05-30T07:46:15.750Z,2.90
2019-05-30T07:47:21.008Z,2.77
2019-05-30T07:48:28.018Z,2.57
2019-05-30T07:49:34.551Z,2.60
2019-05-30T07:50:41.591Z,2.67
2019-05-30T07:51:46.819Z,2.80
2019-05-30T07:52:52.525Z,2.90
2019-05-30T07:54:01.550Z,2.80
2019-05-30T07:55:08.214Z,4.07
2019-05-30T07:56:13.475Z,2.53
2019-05-30T07:57:19.265Z,3.67
2019-05-30T07:58:24.463Z,2.80
2019-05-30T07:59:30.375Z,3.23
2019-05-30T08:00:35.677Z,2.93
2019-05-30T08:01:41.599Z,3.03
2019-05-30T08:02:46.821Z,2.93
2019-05-30T08:03:52.563Z,2.97
2019-05-30T08:04:57.830Z,2.90
2019-05-30T08:06:03.605Z,2.77
2019-05-30T08:07:08.911Z,2.73
2019-05-30T08:08:14.623Z,2.93
2019-05-30T08:09:19.774Z,3.00
2019-05-30T08:10:25.584Z,3.10
2019-05-30T08:11:30.888Z,3.00
2019-05-30T08:12:36.689Z,2.90
2019-05-30T08:13:41.968Z,3.00
2019-05-30T08:14:47.664Z,2.90
2019-05-30T08:15:52.912Z,2.83
2019-05-30T08:16:58.696Z,3.40
2019-05-30T08:18:03.937Z,3.33
2019-05-30T08:19:09.711Z,3.70
2019-05-30T08:20:15.862Z,4.03
2019-05-30T08:21:21.728Z,4.13
2019-05-30T08:22:27.961Z,4.30
2019-05-30T08:23:34.261Z,4.03
2019-05-30T08:24:39.437Z,4.40
2019-05-30T08:25:45.106Z,3.80
2019-05-30T08:26:50.263Z,7.77
2019-05-30T08:27:56.105Z,7.60
2019-05-30T08:29:01.234Z,9.50
2019-05-30T08:30:07.628Z,4.20
2019-05-30T08:31:12.809Z,3.87
2019-05-30T08:32:18.575Z,3.93
2019-05-30T08:33:23.773Z,3.90
2019-05-30T08:34:30.458Z,4.00
2019-05-30T08:35:43.535Z,3.80
2019-05-30T08:36:43.099Z,4.33
2019-05-30T08:37:48.398Z,4.17
2019-05-30T08:38:54.050Z,3.60
2019-05-30T08:40:00.270Z,3.80
2019-05-30T08:41:06.001Z,4.30
2019-05-30T08:42:11.246Z,4.10
2019-05-30T08:43:17.041Z,4.80
2019-05-30T08:44:22.225Z,4.37
2019-05-30T08:45:28.046Z,4.03
2019-05-30T08:46:33.727Z,4.13
2019-05-30T08:47:40.650Z,4.23
2019-05-30T08:48:46.095Z,4.10
2019-05-30T08:49:51.914Z,3.93
2019-05-30T08:50:57.184Z,4.10
2019-05-30T08:52:02.963Z,4.10
2019-05-30T08:53:08.142Z,4.13
2019-05-30T08:54:14.205Z,4.50
2019-05-30T08:55:19.722Z,3.90
2019-05-30T08:56:28.417Z,4.13
2019-05-30T08:57:32.543Z,4.97
2019-05-30T08:58:38.783Z,4.60
2019-05-30T08:59:44.874Z,4.20
2019-05-30T09:00:50.792Z,4.90
2019-05-30T09:01:56.050Z,4.53
2019-05-30T09:03:02.103Z,4.57
2019-05-30T09:04:07.254Z,4.97
2019-05-30T09:05:13.461Z,5.10
2019-05-30T09:06:18.614Z,5.00
2019-05-30T09:07:24.447Z,4.60
2019-05-30T09:08:29.630Z,4.73
2019-05-30T09:09:36.486Z,4.70
2019-05-30T09:10:42.626Z,4.47
2019-05-30T09:11:48.773Z,4.70
2019-05-30T09:12:54.300Z,5.60
2019-05-30T09:14:00.408Z,4.87
2019-05-30T09:15:07.110Z,5.07
2019-05-30T09:16:12.889Z,5.40
2019-05-30T09:17:21.380Z,5.03
2019-05-30T09:18:27.627Z,5.70
2019-05-30T09:19:35.157Z,5.37
2019-05-30T09:20:41.909Z,5.93
2019-05-30T09:21:47.541Z,6.17
2019-05-30T09:22:53.659Z,5.90
2019-05-30T09:24:02.393Z,6.83
2019-05-30T09:25:08.758Z,5.97
2019-05-30T09:26:14.122Z,6.00
2019-05-30T09:27:20.427Z,6.77
2019-05-30T09:28:25.774Z,5.17
2019-05-30T09:29:31.593Z,6.73
2019-05-30T09:30:38.192Z,5.80
2019-05-30T09:31:45.001Z,6.60
2019-05-30T09:32:52.202Z,7.00
2019-05-30T09:33:58.373Z,6.47
2019-05-30T09:35:03.753Z,6.43
2019-05-30T09:36:13.495Z,6.07
2019-05-30T09:37:18.185Z,5.90
2019-05-30T09:38:24.092Z,6.33
2019-05-30T09:39:29.911Z,7.13
2019-05-30T09:40:36.623Z,8.30
2019-05-30T09:41:42.219Z,10.10
2019-05-30T09:42:50.409Z,10.13
2019-05-30T09:43:55.689Z,10.80
2019-05-30T09:45:01.730Z,9.30
2019-05-30T09:46:07.381Z,11.40
2019-05-30T09:47:15.061Z,10.90
2019-05-30T09:48:20.255Z,14.33
2019-05-30T09:49:26.168Z,13.17
2019-05-30T09:50:31.432Z,13.30
2019-05-30T09:51:37.191Z,13.97
2019-05-30T09:52:43.607Z,12.87
2019-05-30T09:53:52.852Z,13.57
2019-05-30T09:54:56.833Z,13.47
2019-05-30T09:56:02.524Z,13.80
2019-05-30T09:57:07.897Z,13.80
2019-05-30T09:58:13.826Z,13.50
2019-05-30T09:59:19.172Z,12.37
2019-05-30T10:00:25.385Z,13.53
2019-05-30T10:01:30.795Z,12.57
2019-05-30T10:02:36.658Z,13.10
2019-05-30T10:03:43.287Z,13.67
2019-05-30T10:04:50.390Z,13.57
2019-05-30T10:05:55.672Z,12.60
2019-05-30T10:07:01.518Z,12.83
2019-05-30T10:08:07.024Z,12.30
2019-05-30T10:09:12.820Z,12.77
2019-05-30T10:10:18.785Z,12.27
2019-05-30T10:11:24.620Z,13.07
2019-05-30T10:12:30.986Z,13.60
2019-05-30T10:13:36.718Z,13.07
2019-05-30T10:14:42.049Z,11.10
2019-05-30T10:15:48.553Z,12.13
2019-05-30T10:16:56.518Z,12.13
2019-05-30T10:18:01.273Z,14.03
2019-05-30T10:19:08.619Z,13.17
2019-05-30T10:20:15.331Z,14.20
2019-05-30T10:21:20.566Z,14.30
2019-05-30T10:22:26.405Z,15.00
2019-05-30T10:23:31.730Z,15.17
2019-05-30T10:24:37.805Z,18.97
2019-05-30T10:25:43.005Z,16.33
2019-05-30T10:26:49.047Z,20.83
2019-05-30T10:27:54.834Z,16.93
2019-05-30T10:29:00.838Z,19.67
2019-05-30T10:30:07.607Z,17.80
2019-05-30T10:31:13.454Z,18.37
2019-05-30T10:32:18.741Z,17.33
2019-05-30T10:33:24.639Z,21.23
2019-05-30T10:34:29.881Z,18.30
2019-05-30T10:35:35.670Z,18.13
2019-05-30T10:36:44.589Z,16.40
2019-05-30T10:37:50.938Z,17.93
2019-05-30T10:38:56.304Z,22.10
2019-05-30T10:40:05.231Z,18.93
2019-05-30T10:41:10.526Z,20.13
2019-05-30T10:42:16.211Z,24.13
2019-05-30T10:43:21.533Z,21.47
2019-05-30T10:44:27.382Z,20.30
2019-05-30T10:45:32.674Z,17.97
2019-05-30T10:46:38.599Z,17.77
2019-05-30T10:47:45.835Z,19.40
2019-05-30T10:48:52.672Z,21.17
2019-05-30T10:49:58.358Z,19.63
2019-05-30T10:51:04.431Z,20.00
2019-05-30T10:52:09.687Z,20.40
2019-05-30T10:53:15.546Z,20.67
2019-05-30T10:54:20.811Z,20.80
2019-05-30T10:55:27.096Z,19.27
2019-05-30T10:56:32.337Z,17.07
2019-05-30T10:57:38.610Z,18.20
2019-05-30T10:58:43.806Z,19.67
2019-05-30T10:59:50.853Z,19.13
2019-05-30T11:00:57.963Z,18.50
2019-05-30T11:02:03.874Z,17.80
2019-05-30T11:03:09.154Z,18.23
2019-05-30T11:04:14.999Z,18.20
2019-05-30T11:05:20.789Z,18.80
2019-05-30T11:06:36.807Z,18.73
2019-05-30T11:08:01.881Z,18.17
2019-05-30T11:09:05.273Z,18.50
2019-05-30T11:10:15.374Z,19.07
2019-05-30T11:11:21.114Z,18.17
2019-05-30T11:12:28.230Z,20.93
2019-05-30T11:13:34.152Z,20.13
2019-05-30T11:14:39.442Z,19.80
2019-05-30T11:15:45.367Z,21.80
2019-05-30T11:16:51.781Z,21.23
2019-05-30T11:17:57.828Z,21.27
2019-05-30T11:19:07.453Z,21.67
2019-05-30T11:20:10.698Z,20.90
2019-05-30T11:21:15.985Z,20.57
2019-05-30T11:22:21.816Z,20.10
2019-05-30T11:23:26.943Z,22.60
2019-05-30T11:24:32.845Z,23.43
2019-05-30T11:25:38.153Z,24.40
2019-05-30T11:26:44.977Z,23.83
2019-05-30T11:27:50.548Z,23.13
2019-05-30T11:28:56.776Z,24.53
2019-05-30T11:30:02.062Z,22.27
2019-05-30T11:31:08.077Z,22.43
2019-05-30T11:32:13.319Z,22.97
2019-05-30T11:33:20.213Z,22.47
2019-05-30T11:34:25.475Z,22.67
2019-05-30T11:35:31.436Z,21.70
2019-05-30T11:36:36.686Z,21.60
2019-05-30T11:37:42.528Z,22.70
2019-05-30T11:38:49.032Z,22.10
2019-05-30T11:39:55.347Z,23.07
2019-05-30T11:41:00.657Z,23.40
2019-05-30T11:42:07.660Z,22.60
2019-05-30T11:43:12.866Z,22.17
2019-05-30T11:44:18.694Z,22.50
2019-05-30T11:45:24.151Z,21.50
2019-05-30T11:46:29.899Z,23.40
2019-05-30T11:47:35.085Z,22.23
2019-05-30T11:48:40.784Z,20.40
2019-05-30T11:49:45.910Z,19.53
2019-05-30T11:50:52.022Z,21.80
2019-05-30T11:51:57.881Z,21.83
2019-05-30T11:53:04.706Z,20.57
2019-05-30T11:54:10.005Z,19.83
2019-05-30T11:55:15.972Z,21.87
2019-05-30T11:56:21.141Z,21.63
2019-05-30T11:57:27.042Z,20.33
2019-05-30T11:58:32.248Z,20.30
2019-05-30T11:59:40.734Z,19.87
2019-05-30T12:00:46.147Z,22.20
2019-05-30T12:01:53.106Z,22.80
2019-05-30T12:02:59.082Z,22.10
2019-05-30T12:04:04.956Z,22.33
2019-05-30T12:05:10.957Z,22.27
2019-05-30T12:06:16.817Z,22.57
2019-05-30T12:07:35.363Z,22.27
2019-05-30T12:08:29.348Z,21.17
2019-05-30T12:09:34.709Z,21.33
2019-05-30T12:10:40.532Z,22.37
2019-05-30T12:11:45.770Z,21.20
2019-05-30T12:12:51.579Z,21.10
2019-05-30T12:13:57.434Z,20.53
2019-05-30T12:15:03.295Z,20.33
2019-05-30T12:16:08.835Z,21.13
2019-05-30T12:17:14.586Z,21.73
2019-05-30T12:18:19.848Z,19.80
2019-05-30T12:19:25.891Z,20.83
2019-05-30T12:20:31.143Z,19.93
2019-05-30T12:21:36.873Z,19.50
2019-05-30T12:22:41.990Z,19.77
2019-05-30T12:23:47.846Z,19.63
2019-05-30T12:24:53.860Z,19.60
2019-05-30T12:26:00.172Z,19.30
2019-05-30T12:27:05.581Z,19.47
2019-05-30T12:28:11.461Z,18.60
2019-05-30T12:29:16.624Z,19.30
2019-05-30T12:30:23.469Z,18.97
2019-05-30T12:31:28.670Z,19.20
2019-05-30T12:32:34.472Z,19.17
2019-05-30T12:33:39.719Z,19.30
2019-05-30T12:34:45.595Z,17.83
2019-05-30T12:35:50.773Z,18.57
2019-05-30T12:36:56.602Z,19.53
2019-05-30T12:38:05.974Z,17.63
2019-05-30T12:39:09.478Z,18.17
2019-05-30T12:40:15.466Z,19.20
2019-05-30T12:41:21.551Z,17.70
2019-05-30T12:42:26.800Z,17.20
2019-05-30T12:43:32.565Z,17.47
2019-05-30T12:44:37.812Z,16.73
2019-05-30T12:45:43.634Z,16.23
2019-05-30T12:46:48.905Z,17.03
2019-05-30T12:47:55.158Z,15.77
2019-05-30T12:49:01.610Z,16.83
2019-05-30T12:50:08.065Z,17.20
2019-05-30T12:51:13.349Z,17.07
2019-05-30T12:52:19.191Z,16.40
2019-05-30T12:53:24.633Z,16.43
2019-05-30T12:54:30.569Z,16.97
2019-05-30T12:55:37.658Z,16.63
2019-05-30T12:56:43.225Z,17.03
2019-05-30T12:57:48.575Z,15.23
2019-05-30T12:58:54.585Z,16.47
2019-05-30T13:00:00.937Z,15.63
2019-05-30T13:01:07.112Z,14.87
2019-05-30T13:02:12.313Z,15.63
2019-05-30T13:03:18.121Z,14.23
2019-05-30T13:04:23.449Z,14.57
2019-05-30T13:05:29.536Z,13.63
2019-05-30T13:06:34.864Z,13.60
2019-05-30T13:07:40.766Z,13.93
2019-05-30T13:08:46.010Z,13.33
2019-05-30T13:09:51.814Z,14.03
2019-05-30T13:10:57.386Z,13.70
2019-05-30T13:12:03.359Z,14.13
2019-05-30T13:13:08.532Z,13.33
2019-05-30T13:14:14.465Z,14.00
2019-05-30T13:15:19.841Z,14.17
2019-05-30T13:16:25.665Z,14.00
2019-05-30T13:17:30.865Z,13.27
2019-05-30T13:18:36.751Z,14.37
2019-05-30T13:19:42.018Z,14.20
2019-05-30T13:20:47.773Z,14.33
2019-05-30T13:21:53.878Z,13.77
2019-05-30T13:23:00.605Z,13.13
2019-05-30T13:24:06.199Z,13.27
2019-05-30T13:25:14.679Z,19.77
2019-05-30T13:26:19.955Z,15.67
2019-05-30T13:27:25.965Z,15.63
2019-05-30T13:28:31.398Z,15.57
2019-05-30T13:29:37.578Z,14.50
2019-05-30T13:30:42.804Z,16.20
2019-05-30T13:31:48.614Z,15.57
2019-05-30T13:32:54.005Z,16.03
2019-05-30T13:34:02.946Z,17.17
2019-05-30T13:35:12.781Z,15.70
2019-05-30T13:36:18.623Z,15.27
2019-05-30T13:37:23.823Z,15.10
2019-05-30T13:38:29.727Z,16.23
2019-05-30T13:39:34.965Z,16.83
2019-05-30T13:40:40.748Z,16.57
2019-05-30T13:41:46.078Z,17.13
2019-05-30T13:42:51.819Z,15.23
2019-05-30T13:43:57.886Z,15.50
2019-05-30T13:45:04.203Z,14.83
2019-05-30T13:46:09.583Z,16.37
2019-05-30T13:47:15.700Z,15.53
2019-05-30T13:48:23.280Z,16.23
2019-05-30T13:49:29.213Z,16.47
2019-05-30T13:50:34.622Z,15.93
2019-05-30T13:51:40.591Z,15.80
2019-05-30T13:52:46.119Z,16.27
2019-05-30T13:53:52.148Z,15.60
2019-05-30T13:54:57.457Z,15.53
2019-05-30T13:56:03.496Z,14.17
2019-05-30T13:57:09.761Z,14.87
2019-05-30T13:58:15.833Z,14.63
2019-05-30T13:59:21.178Z,14.00
2019-05-30T14:00:27.270Z,14.03
2019-05-30T14:01:32.853Z,13.37
2019-05-30T14:02:38.845Z,13.30
2019-05-30T14:03:44.118Z,13.20
2019-05-30T14:04:50.004Z,12.83
2019-05-30T14:05:56.276Z,12.70
2019-05-30T14:07:02.300Z,12.00
2019-05-30T14:08:10.704Z,12.20
2019-05-30T14:09:15.357Z,11.13
2019-05-30T14:10:21.062Z,12.37
2019-05-30T14:11:27.090Z,13.77
2019-05-30T14:12:32.466Z,10.63
2019-05-30T14:13:38.456Z,10.40
2019-05-30T14:14:43.754Z,9.40
2019-05-30T14:15:49.739Z,9.97
2019-05-30T14:16:55.005Z,9.93
2019-05-30T14:18:05.080Z,9.63
2019-05-30T14:19:12.584Z,9.43
2019-05-30T14:20:22.242Z,8.97
2019-05-30T14:21:27.378Z,9.50
2019-05-30T14:22:33.140Z,8.67
2019-05-30T14:23:38.418Z,9.00
2019-05-30T14:24:44.435Z,9.20
2019-05-30T14:25:49.807Z,9.00
2019-05-30T14:26:55.618Z,8.67
2019-05-30T14:28:01.469Z,8.50
2019-05-30T14:29:07.741Z,8.63
2019-05-30T14:30:14.268Z,9.30
2019-05-30T14:31:20.102Z,8.30
2019-05-30T14:32:25.536Z,8.73
2019-05-30T14:33:31.630Z,7.87
2019-05-30T14:34:36.906Z,9.20